createdAt,value
2022-11-05T00:02:53.738Z,24.05
2022-11-05T00:06:13.921Z,21.73
2022-11-05T00:09:31.030Z,25.52
2022-11-05T00:12:51.675Z,21.25
2022-11-05T00:16:12.255Z,19.75
2022-11-05T00:19:14.833Z,26.00
2022-11-05T00:22:34.935Z,26.77
2022-11-05T00:25:36.460Z,31.92
2022-11-05T00:28:43.702Z,22.83
2022-11-05T00:31:45.244Z,30.35
2022-11-05T00:34:46.770Z,33.17
2022-11-05T00:37:50.219Z,28.95
2022-11-05T00:40:52.294Z,25.02
2022-11-05T00:44:12.866Z,25.15
2022-11-05T00:47:32.904Z,25.08
2022-11-05T00:50:34.735Z,26.35
2022-11-05T00:53:36.315Z,22.55
2022-11-05T00:56:37.845Z,33.70
2022-11-05T00:59:39.393Z,31.60
2022-11-05T01:02:41.054Z,28.88
2022-11-05T01:05:46.363Z,26.73
2022-11-05T01:08:47.964Z,27.42
2022-11-05T01:11:51.233Z,33.35
2022-11-05T01:14:52.820Z,31.13
2022-11-05T01:17:54.352Z,21.08
2022-11-05T01:20:56.016Z,29.00
2022-11-05T01:23:57.625Z,26.05
2022-11-05T01:26:59.261Z,24.35
2022-11-05T01:30:00.824Z,22.80
2022-11-05T01:33:03.420Z,33.25
2022-11-05T01:36:05.451Z,22.10
2022-11-05T01:39:07.012Z,22.95
2022-11-05T01:42:20.223Z,29.98
2022-11-05T01:45:27.349Z,27.83
2022-11-05T01:48:33.850Z,28.98
2022-11-05T01:51:39.568Z,32.33
2022-11-05T01:54:41.191Z,29.25
2022-11-05T01:57:42.816Z,27.08
2022-11-05T02:00:44.553Z,23.40
2022-11-05T02:03:48.907Z,25.65
2022-11-05T02:06:50.626Z,26.88
2022-11-05T02:10:02.496Z,20.33
2022-11-05T02:13:04.049Z,28.98
2022-11-05T02:16:34.438Z,24.83
2022-11-05T02:24:11.201Z,32.45
2022-11-05T02:27:53.793Z,26.48
2022-11-05T02:31:22.826Z,29.27
2022-11-05T02:34:56.802Z,30.20
2022-11-05T02:38:07.594Z,31.85
2022-11-05T02:44:22.198Z,38.13
2022-11-05T02:47:32.869Z,33.50
2022-11-05T02:53:46.976Z,36.58
2022-11-05T02:56:51.599Z,33.65
2022-11-05T03:00:46.799Z,23.02
2022-11-05T03:04:00.936Z,30.83
2022-11-05T03:07:14.123Z,29.77
2022-11-05T03:10:31.493Z,25.77
2022-11-05T03:13:45.019Z,27.00
2022-11-05T03:16:55.002Z,29.45
2022-11-05T03:20:08.583Z,27.75
2022-11-05T03:23:17.435Z,28.55
2022-11-05T03:26:23.707Z,31.17
2022-11-05T03:29:32.261Z,24.98
2022-11-05T03:32:37.179Z,30.08
2022-11-05T03:35:44.976Z,27.95
2022-11-05T03:38:49.889Z,29.35
2022-11-05T03:41:53.606Z,27.85
2022-11-05T03:45:00.150Z,32.78
2022-11-05T03:48:04.323Z,36.67
2022-11-05T03:51:16.560Z,29.58
2022-11-05T03:54:18.189Z,29.80
2022-11-05T03:57:31.247Z,27.10
2022-11-05T04:00:33.354Z,31.33
2022-11-05T04:03:36.590Z,30.13
2022-11-05T04:06:56.902Z,32.45
2022-11-05T04:10:17.726Z,19.42
2022-11-05T04:16:45.135Z,30.40
2022-11-05T04:20:05.494Z,27.95
2022-11-05T04:23:25.746Z,26.27
2022-11-05T04:26:27.313Z,28.38
2022-11-05T04:29:47.346Z,31.92
2022-11-05T04:33:13.706Z,26.52
2022-11-05T04:36:16.735Z,32.08
2022-11-05T04:39:19.372Z,27.42
2022-11-05T04:42:20.972Z,29.60
2022-11-05T04:45:24.311Z,21.77
2022-11-05T04:48:25.873Z,26.90
2022-11-05T04:51:27.477Z,23.08
2022-11-05T04:54:29.079Z,28.20
2022-11-05T04:57:30.707Z,22.80
2022-11-05T05:00:32.294Z,25.77
2022-11-05T05:03:33.955Z,26.40
2022-11-05T05:06:35.653Z,23.38
2022-11-05T05:09:37.259Z,26.25
2022-11-05T05:12:38.975Z,24.60
2022-11-05T05:15:40.525Z,28.73
2022-11-05T05:18:46.561Z,33.50
2022-11-05T05:21:48.259Z,32.60
2022-11-05T05:24:52.718Z,32.15
2022-11-05T05:27:57.756Z,27.77
2022-11-05T05:31:00.628Z,29.25
2022-11-05T05:34:05.503Z,26.48
2022-11-05T05:37:07.231Z,32.75
2022-11-05T05:40:09.807Z,29.00
2022-11-05T05:43:11.867Z,26.02
2022-11-05T05:46:18.526Z,30.48
2022-11-05T05:49:20.063Z,36.92
2022-11-05T05:52:21.705Z,29.55
2022-11-05T05:55:23.287Z,33.72
2022-11-05T05:58:31.418Z,34.33
2022-11-05T06:01:33.116Z,35.13
2022-11-05T06:04:34.783Z,39.22
2022-11-05T06:07:37.588Z,34.70
2022-11-05T06:10:42.581Z,36.55
2022-11-05T06:13:44.305Z,34.13
2022-11-05T06:16:45.916Z,42.50
2022-11-05T06:19:47.856Z,36.97
2022-11-05T06:22:57.058Z,40.22
2022-11-05T06:26:06.583Z,36.10
2022-11-05T06:29:09.635Z,32.60
2022-11-05T06:32:11.177Z,39.65
2022-11-05T06:35:12.937Z,37.80
2022-11-05T06:38:14.554Z,39.00
2022-11-05T06:41:16.143Z,43.50
2022-11-05T06:44:17.682Z,40.53
2022-11-05T06:47:20.067Z,38.28
2022-11-05T06:50:21.613Z,39.90
2022-11-05T06:53:23.483Z,40.97
2022-11-05T06:56:25.134Z,50.35
2022-11-05T06:59:26.852Z,40.63
2022-11-05T07:02:28.404Z,39.40
2022-11-05T07:05:30.844Z,48.65
2022-11-05T07:08:36.469Z,37.08
2022-11-05T07:11:38.030Z,47.28
2022-11-05T07:14:39.560Z,46.08
2022-11-05T07:17:41.130Z,41.67
2022-11-05T07:20:42.704Z,37.85
2022-11-05T07:23:44.248Z,43.20
2022-11-05T07:26:45.774Z,44.67
2022-11-05T07:29:47.369Z,43.65
2022-11-05T07:32:48.930Z,42.72
2022-11-05T07:35:50.473Z,39.95
2022-11-05T07:38:54.923Z,37.13
2022-11-05T07:42:00.622Z,38.67
2022-11-05T07:45:02.206Z,28.75
2022-11-05T07:48:04.901Z,36.13
2022-11-05T07:51:06.544Z,37.45
2022-11-05T07:54:08.146Z,34.67
2022-11-05T07:57:09.671Z,36.47
2022-11-05T08:00:14.111Z,40.05
2022-11-05T08:03:17.966Z,36.42
2022-11-05T08:06:20.117Z,36.30
2022-11-05T08:09:21.664Z,34.67
2022-11-05T08:12:23.487Z,33.22
2022-11-05T08:15:25.367Z,26.90
2022-11-05T08:18:31.325Z,35.28
2022-11-05T08:21:32.874Z,34.50
2022-11-05T08:24:34.436Z,29.00
2022-11-05T08:27:36.033Z,29.20
2022-11-05T08:30:37.613Z,33.70
2022-11-05T08:33:39.115Z,36.67
2022-11-05T08:36:43.176Z,31.10
2022-11-05T08:39:44.756Z,82.15
2022-11-05T08:42:46.330Z,40.95
2022-11-05T08:45:48.082Z,27.70
2022-11-05T08:48:49.929Z,30.88
2022-11-05T08:51:51.492Z,28.13
2022-11-05T08:54:53.054Z,30.20
2022-11-05T08:57:59.663Z,26.33
2022-11-05T09:01:05.386Z,31.10
2022-11-05T09:04:07.327Z,32.95
2022-11-05T09:07:08.994Z,28.27
2022-11-05T09:10:10.880Z,25.73
2022-11-05T09:13:18.407Z,27.20
2022-11-05T09:16:24.991Z,24.95
2022-11-05T09:19:26.587Z,26.15
2022-11-05T09:22:28.139Z,29.70
2022-11-05T09:25:29.724Z,26.83
2022-11-05T09:28:34.146Z,25.33
2022-11-05T09:31:35.701Z,22.10
2022-11-05T09:34:37.620Z,27.60
2022-11-05T09:37:39.178Z,23.70
2022-11-05T09:40:55.556Z,34.78
2022-11-05T09:44:05.238Z,19.27
2022-11-05T09:47:14.608Z,26.75
2022-11-05T09:50:30.339Z,20.02
2022-11-05T09:53:32.038Z,23.23
2022-11-05T09:56:37.137Z,22.40
2022-11-05T09:59:58.377Z,26.83
2022-11-05T10:03:06.767Z,20.90
2022-11-05T10:06:10.948Z,18.98
2022-11-05T10:09:26.504Z,18.17
2022-11-05T10:12:34.166Z,20.98
2022-11-05T10:15:40.412Z,23.08
2022-11-05T10:18:47.355Z,20.08
2022-11-05T10:22:05.965Z,28.65
2022-11-05T10:25:21.885Z,18.52
2022-11-05T10:28:29.820Z,19.65
2022-11-05T10:31:37.003Z,16.38
2022-11-05T10:34:39.512Z,19.15
2022-11-05T10:37:41.335Z,21.02
2022-11-05T10:41:01.619Z,20.08
2022-11-05T10:44:24.870Z,21.83
2022-11-05T10:47:40.912Z,25.15
2022-11-05T10:50:44.300Z,17.20
2022-11-05T10:54:01.609Z,22.60
2022-11-05T10:57:28.594Z,22.05
2022-11-05T11:00:30.383Z,18.98
2022-11-05T11:03:48.490Z,25.10
2022-11-05T11:06:53.614Z,17.48
2022-11-05T11:09:55.286Z,19.52
2022-11-05T11:12:57.402Z,20.38
2022-11-05T11:16:19.504Z,15.63
2022-11-05T11:19:21.268Z,17.05
2022-11-05T11:22:22.923Z,20.65
2022-11-05T11:25:26.226Z,20.10
2022-11-05T11:28:39.564Z,23.67
2022-11-05T11:31:41.804Z,18.90
2022-11-05T11:34:46.018Z,20.65
2022-11-05T11:37:48.364Z,16.58
2022-11-05T11:40:51.237Z,16.65
2022-11-05T11:44:01.089Z,13.73
2022-11-05T11:47:09.478Z,15.23
2022-11-05T11:50:35.726Z,14.30
2022-11-05T11:53:37.332Z,15.68
2022-11-05T11:56:46.659Z,15.02
2022-11-05T12:00:07.836Z,16.02
2022-11-05T12:03:38.260Z,17.38
2022-11-05T12:07:02.362Z,18.92
2022-11-05T12:10:28.778Z,15.93
2022-11-05T12:14:04.226Z,12.65
2022-11-05T12:17:20.498Z,13.55
2022-11-05T12:20:43.647Z,13.25
2022-11-05T12:23:57.199Z,16.60
2022-11-05T12:27:32.690Z,13.80
2022-11-05T12:30:59.594Z,13.07
2022-11-05T12:34:04.159Z,15.65
2022-11-05T12:37:24.569Z,15.45
2022-11-05T12:40:41.376Z,15.68
2022-11-05T12:44:19.886Z,14.40
2022-11-05T12:47:24.453Z,15.32
2022-11-05T12:50:52.243Z,14.65
2022-11-05T12:54:35.633Z,10.57
2022-11-05T12:57:40.878Z,12.63
2022-11-05T13:00:45.974Z,14.35
2022-11-05T13:03:59.989Z,12.38
2022-11-05T13:07:06.331Z,12.73
2022-11-05T13:10:25.605Z,12.05
2022-11-05T13:13:41.224Z,10.82
2022-11-05T13:16:50.764Z,11.27
2022-11-05T13:20:17.173Z,12.95
2022-11-05T13:23:31.036Z,11.18
2022-11-05T13:26:52.417Z,13.25
2022-11-05T13:30:01.854Z,13.20
2022-11-05T13:33:11.672Z,13.55
2022-11-05T13:36:57.019Z,16.50
2022-11-05T13:40:02.993Z,9.57
2022-11-05T13:43:29.019Z,11.93
2022-11-05T13:46:49.427Z,12.68
2022-11-05T13:50:15.970Z,9.25
2022-11-05T13:53:48.711Z,10.98
2022-11-05T13:57:19.395Z,9.85
2022-11-05T14:00:26.931Z,14.82
2022-11-05T14:03:29.120Z,9.73
2022-11-05T14:06:36.273Z,10.80
2022-11-05T14:09:39.574Z,15.02
2022-11-05T14:12:46.098Z,13.80
2022-11-05T14:16:07.077Z,12.02
2022-11-05T14:19:20.621Z,9.25
2022-11-05T14:22:31.286Z,11.23
2022-11-05T14:25:35.538Z,12.90
2022-11-05T14:28:37.608Z,16.10
2022-11-05T14:32:07.827Z,10.48
2022-11-05T14:35:17.249Z,12.18
2022-11-05T14:41:23.324Z,9.55
2022-11-05T14:44:26.329Z,8.45
2022-11-05T14:47:36.470Z,11.80
2022-11-05T14:50:41.461Z,11.80
2022-11-05T14:53:43.264Z,10.88
2022-11-05T14:56:55.911Z,7.38
2022-11-05T15:00:00.839Z,12.50
2022-11-05T15:03:31.764Z,10.55
2022-11-05T15:09:51.458Z,11.20
2022-11-05T15:13:03.925Z,13.52
2022-11-05T15:16:07.032Z,11.30
2022-11-05T15:19:29.267Z,11.80
2022-11-05T15:22:45.118Z,19.95
2022-11-05T15:26:15.670Z,12.18
2022-11-05T15:29:24.560Z,15.60
2022-11-05T15:32:27.906Z,9.98
2022-11-05T15:35:30.381Z,10.93
2022-11-05T15:38:34.205Z,14.25
2022-11-05T15:41:35.806Z,11.30
2022-11-05T15:44:42.925Z,9.48
2022-11-05T15:47:46.158Z,8.70
2022-11-05T15:50:47.790Z,8.63
2022-11-05T15:54:23.867Z,11.70
2022-11-05T15:57:25.453Z,10.40
2022-11-05T16:00:29.391Z,8.10
2022-11-05T16:03:33.265Z,9.90
2022-11-05T16:06:38.635Z,10.13
2022-11-05T16:09:43.860Z,10.07
2022-11-05T16:12:45.445Z,8.95
2022-11-05T16:15:54.798Z,9.18
2022-11-05T16:18:56.387Z,9.98
2022-11-05T16:21:57.968Z,10.50
2022-11-05T16:24:59.503Z,12.07
2022-11-05T16:28:01.700Z,16.65
2022-11-05T16:31:05.375Z,7.85
2022-11-05T16:34:07.298Z,9.02
2022-11-05T16:37:13.322Z,11.15
2022-11-05T16:40:18.212Z,8.10
2022-11-05T16:43:23.097Z,10.80
2022-11-05T16:46:28.616Z,7.03
2022-11-05T16:49:30.185Z,7.93
2022-11-05T16:52:31.783Z,7.18
2022-11-05T16:55:36.220Z,10.35
2022-11-05T16:58:37.809Z,6.68
2022-11-05T17:01:42.043Z,7.78
2022-11-05T17:04:43.636Z,9.52
2022-11-05T17:07:45.331Z,8.88
2022-11-05T17:10:46.910Z,9.45
2022-11-05T17:13:48.509Z,9.10
2022-11-05T17:16:50.240Z,9.90
2022-11-05T17:19:51.795Z,10.85
2022-11-05T17:22:53.897Z,10.35
2022-11-05T17:26:05.393Z,9.00
2022-11-05T17:29:06.924Z,10.00
2022-11-05T17:32:08.459Z,9.85
2022-11-05T17:35:10.191Z,11.35
2022-11-05T17:38:12.650Z,10.98
2022-11-05T17:41:22.566Z,10.63
2022-11-05T17:44:24.132Z,8.03
2022-11-05T17:47:26.751Z,9.93
2022-11-05T17:50:28.586Z,7.85
2022-11-05T17:53:30.904Z,10.05
2022-11-05T17:56:34.901Z,9.63
2022-11-05T17:59:37.901Z,11.50
2022-11-05T18:02:39.784Z,8.57
2022-11-05T18:05:42.058Z,10.52
2022-11-05T18:08:43.925Z,9.15
2022-11-05T18:11:45.778Z,7.50
2022-11-05T18:14:47.312Z,11.15
2022-11-05T18:17:48.879Z,8.20
2022-11-05T18:20:50.459Z,7.20
2022-11-05T18:26:54.804Z,8.57
2022-11-05T18:29:56.395Z,8.85
2022-11-05T18:32:58.036Z,8.43
2022-11-05T18:35:59.666Z,6.97
2022-11-05T18:39:03.432Z,7.40
2022-11-05T18:42:05.873Z,13.13
2022-11-05T18:45:08.498Z,8.10
2022-11-05T18:48:10.352Z,11.75
2022-11-05T18:51:14.706Z,8.55
2022-11-05T18:54:16.362Z,9.35
2022-11-05T18:57:17.953Z,12.80
2022-11-05T19:00:20.313Z,11.98
2022-11-05T19:03:21.852Z,8.65
2022-11-05T19:06:27.586Z,10.13
2022-11-05T19:09:29.169Z,9.80
2022-11-05T19:12:31.021Z,8.32
2022-11-05T19:15:32.632Z,9.00
2022-11-05T19:18:34.379Z,8.95
2022-11-05T19:21:36.232Z,11.73
2022-11-05T19:24:40.385Z,10.75
2022-11-05T19:27:43.579Z,13.98
2022-11-05T19:30:45.368Z,11.38
2022-11-05T19:33:48.889Z,9.20
2022-11-05T19:36:50.453Z,9.93
2022-11-05T19:39:52.070Z,12.82
2022-11-05T19:42:53.643Z,12.38
2022-11-05T19:45:55.455Z,13.20
2022-11-05T19:48:57.617Z,8.57
2022-11-05T19:51:59.196Z,10.77
2022-11-05T19:55:00.917Z,16.83
2022-11-05T19:58:02.492Z,12.18
2022-11-05T20:01:04.584Z,13.55
2022-11-05T20:04:06.342Z,11.90
2022-11-05T20:07:08.117Z,19.20
2022-11-05T20:10:09.900Z,11.52
2022-11-05T20:13:17.026Z,16.08
2022-11-05T20:16:22.708Z,11.75
2022-11-05T20:19:24.472Z,11.40
2022-11-05T20:22:26.136Z,13.98
2022-11-05T20:25:27.651Z,10.93
2022-11-05T20:28:29.797Z,16.48
2022-11-05T20:31:31.435Z,15.73
2022-11-05T20:34:35.230Z,11.45
2022-11-05T20:37:36.780Z,14.98
2022-11-05T20:40:39.531Z,14.07
2022-11-05T20:43:41.407Z,16.52
2022-11-05T20:46:42.931Z,15.23
2022-11-05T20:49:44.505Z,12.38
2022-11-05T20:52:46.062Z,10.32
2022-11-05T20:55:48.193Z,15.60
2022-11-05T20:58:50.531Z,13.32
2022-11-05T21:01:52.487Z,12.18
2022-11-05T21:04:54.253Z,11.73
2022-11-05T21:07:56.064Z,14.10
2022-11-05T21:10:57.976Z,14.20
2022-11-05T21:13:59.624Z,18.05
2022-11-05T21:17:01.772Z,14.25
2022-11-05T21:20:06.233Z,15.90
2022-11-05T21:23:10.312Z,16.27
2022-11-05T21:26:13.949Z,15.70
2022-11-05T21:29:16.537Z,23.67
2022-11-05T21:32:18.192Z,15.82
2022-11-05T21:35:19.698Z,16.73
2022-11-05T21:38:22.989Z,15.07
2022-11-05T21:41:24.522Z,16.88
2022-11-05T21:44:26.092Z,19.48
2022-11-05T21:47:29.102Z,15.50
2022-11-05T21:50:49.160Z,19.10
2022-11-05T21:54:09.599Z,23.80
2022-11-05T21:57:38.625Z,20.58
2022-11-05T22:00:40.165Z,18.65
2022-11-05T22:03:41.702Z,15.35
2022-11-05T22:06:45.692Z,18.45
2022-11-05T22:09:47.301Z,17.58
2022-11-05T22:12:51.345Z,14.48
2022-11-05T22:15:56.468Z,21.90
2022-11-05T22:18:58.767Z,14.43
2022-11-05T22:22:00.443Z,19.60
2022-11-05T22:25:02.080Z,15.45
2022-11-05T22:28:04.029Z,20.25
2022-11-05T22:31:15.383Z,21.33
2022-11-05T22:34:18.598Z,18.52
2022-11-05T22:37:20.125Z,19.40
2022-11-05T22:40:24.030Z,13.77
2022-11-05T22:43:25.809Z,18.25
2022-11-05T22:46:27.610Z,19.40
2022-11-05T22:49:29.238Z,18.90
2022-11-05T22:52:32.780Z,17.13
2022-11-05T22:55:39.144Z,14.20
2022-11-05T22:58:41.236Z,11.85
2022-11-05T23:01:44.681Z,17.05
2022-11-05T23:04:46.332Z,13.00
2022-11-05T23:08:06.474Z,14.88
2022-11-05T23:11:38.372Z,16.80
2022-11-05T23:14:39.953Z,15.90
2022-11-05T23:18:00.310Z,14.48
2022-11-05T23:21:23.193Z,16.10
2022-11-05T23:24:24.877Z,15.20
2022-11-05T23:27:37.796Z,16.85
2022-11-05T23:31:03.316Z,17.30
2022-11-05T23:34:04.862Z,12.43
2022-11-05T23:37:25.692Z,17.67
2022-11-05T23:44:13.317Z,15.02
2022-11-05T23:47:33.768Z,13.65
2022-11-05T23:50:39.725Z,13.30
2022-11-05T23:53:41.919Z,16.83
2022-11-05T23:56:43.527Z,15.02
2022-11-05T23:59:45.050Z,15.80
